Map

Track Data

SID SEASON NUMBER BASIN SUBBASIN NAME ISO_TIME NATURE LAT LON WMO_WIND WMO_PRES WMO_AGENCY TRACK_TYPE DIST2LAND LANDFALL IFLAG USA_AGENCY USA_ATCF_ID USA_LAT USA_LON USA_RECORD USA_STATUS USA_WIND USA_PRES USA_SSHS USA_R34_NE USA_R34_SE USA_R34_SW USA_R34_NW USA_R50_NE USA_R50_SE USA_R50_SW USA_R50_NW USA_R64_NE USA_R64_SE USA_R64_SW USA_R64_NW USA_POCI USA_ROCI USA_RMW USA_EYE TOKYO_LAT TOKYO_LON TOKYO_GRADE TOKYO_WIND TOKYO_PRES TOKYO_R50_DIR TOKYO_R50_LONG TOKYO_R50_SHORT TOKYO_R30_DIR TOKYO_R30_LONG TOKYO_R30_SHORT TOKYO_LAND CMA_LAT CMA_LON CMA_CAT CMA_WIND CMA_PRES HKO_LAT HKO_LON HKO_CAT HKO_WIND HKO_PRES NEWDELHI_LAT NEWDELHI_LON NEWDELHI_GRADE NEWDELHI_WIND NEWDELHI_PRES NEWDELHI_CI NEWDELHI_DP NEWDELHI_POCI REUNION_LAT REUNION_LON REUNION_TYPE REUNION_WIND REUNION_PRES REUNION_TNUM REUNION_CI REUNION_RMW REUNION_R34_NE REUNION_R34_SE REUNION_R34_SW REUNION_R34_NW REUNION_R50_NE REUNION_R50_SE REUNION_R50_SW REUNION_R50_NW REUNION_R64_NE REUNION_R64_SE REUNION_R64_SW REUNION_R64_NW BOM_LAT BOM_LON BOM_TYPE BOM_WIND BOM_PRES BOM_TNUM BOM_CI BOM_RMW BOM_R34_NE BOM_R34_SE BOM_R34_SW BOM_R34_NW BOM_R50_NE BOM_R50_SE BOM_R50_SW BOM_R50_NW BOM_R64_NE BOM_R64_SE BOM_R64_SW BOM_R64_NW BOM_ROCI BOM_POCI BOM_EYE BOM_POS_METHOD BOM_PRES_METHOD NADI_LAT NADI_LON NADI_CAT NADI_WIND NADI_PRES WELLINGTON_LAT WELLINGTON_LON WELLINGTON_WIND WELLINGTON_PRES DS824_LAT DS824_LON DS824_STAGE DS824_WIND DS824_PRES TD9636_LAT TD9636_LON TD9636_STAGE TD9636_WIND TD9636_PRES TD9635_LAT TD9635_LON TD9635_WIND TD9635_PRES TD9635_ROCI NEUMANN_LAT NEUMANN_LON NEUMANN_CLASS NEUMANN_WIND NEUMANN_PRES MLC_LAT MLC_LON MLC_CLASS MLC_WIND MLC_PRES USA_GUST BOM_GUST BOM_GUST_PER REUNION_GUST REUNION_GUST_PER USA_SEAHGT USA_SEARAD_NE USA_SEARAD_SE USA_SEARAD_SW USA_SEARAD_NW STORM_SPEED STORM_DIR
1936267N16130 1936 52 WP MM NOT_NAMED 1936-09-22 21:00:00 NR 16.0000 130.000 main 645 645 __________O___ -1 16.0000 130.000 4 7 3
1936267N16130 1936 52 WP MM NOT_NAMED 1936-09-23 00:00:00 NR 16.3329 130.002 main 658 658 __________P___ -1 16.3329 130.002 4 7 0
1936267N16130 1936 52 WP MM NOT_NAMED 1936-09-23 03:00:00 NR 16.6626 130.003 main 677 677 __________P___ -1 16.6626 130.003 4 7 2
1936267N16130 1936 52 WP MM NOT_NAMED 1936-09-23 06:00:00 NR 16.9860 130.002 main 693 693 __________P___ -1 16.9860 130.002 4 6 358
1936267N16130 1936 52 WP MM NOT_NAMED 1936-09-23 09:00:00 NR 17.3000 130.000 main 710 710 __________O___ -1 17.3000 130.000 4 6 359
1936267N16130 1936 52 WP MM NOT_NAMED 1936-09-23 12:00:00 NR 17.6015 129.993 main 728 728 __________P___ -1 17.6015 129.993 4 6 357
1936267N16130 1936 52 WP MM NOT_NAMED 1936-09-23 15:00:00 NR 17.8873 129.967 main 747 745 __________P___ -1 17.8873 129.967 4 6 352
1936267N16130 1936 52 WP MM NOT_NAMED 1936-09-23 18:00:00 NR 18.1545 129.908 main 759 758 __________P___ -1 18.1545 129.908 4 5 343
1936267N16130 1936 52 WP MM NOT_NAMED 1936-09-23 21:00:00 NR 18.4000 129.800 main 765 764 __________O___ -1 18.4000 129.800 4 6 325
1936267N16130 1936 52 WP MM NOT_NAMED 1936-09-24 00:00:00 NR 18.6301 129.553 main 764 739 __________P___ -1 18.6301 129.553 4 7 311
1936267N16130 1936 52 WP MM NOT_NAMED 1936-09-24 03:00:00 NR 18.8380 129.268 main 739 708 __________P___ -1 18.8380 129.268 4 6 308
1936267N16130 1936 52 WP MM NOT_NAMED 1936-09-24 06:00:00 NR 19.0268 129.025 main 708 699 __________P___ -1 19.0268 129.025 4 5 316
1936267N16130 1936 52 WP MM NOT_NAMED 1936-09-24 09:00:00 NR 19.2000 128.900 main 700 700 __________O___ -1 19.2000 128.900 4 4 355
1936267N16130 1936 52 WP MM NOT_NAMED 1936-09-24 12:00:00 NR 19.4132 128.995 main 713 713 __________P___ -1 19.4132 128.995 4 5 36
1936267N16130 1936 52 WP MM NOT_NAMED 1936-09-24 15:00:00 NR 19.6052 129.214 main 737 737 __________P___ -1 19.6052 129.214 4 6 55
1936267N16130 1936 52 WP MM NOT_NAMED 1936-09-24 18:00:00 NR 19.7445 129.501 main 770 770 __________P___ -1 19.7445 129.501 4 6 71
1936267N16130 1936 52 WP MM NOT_NAMED 1936-09-24 21:00:00 NR 19.8000 129.800 main 803 803 __________O___ -1 19.8000 129.800 4 5 94
1936267N16130 1936 52 WP MM NOT_NAMED 1936-09-25 00:00:00 NR 19.7118 130.026 main 822 822 __________P___ -1 19.7118 130.026 4 5 121
1936267N16130 1936 52 WP MM NOT_NAMED 1936-09-25 03:00:00 NR 19.5449 130.251 main 850 850 __________P___ -1 19.5449 130.251 4 6 130
1936267N16130 1936 52 WP MM NOT_NAMED 1936-09-25 06:00:00 NR 19.3555 130.476 main 869 868 __________P___ -1 19.3555 130.476 4 5 129
1936267N16130 1936 52 WP MM NOT_NAMED 1936-09-25 09:00:00 NR 19.2000 130.700 main 888 888 __________O___ -1 19.2000 130.700 4 5 116
1936267N16130 1936 52 WP MM NOT_NAMED 1936-09-25 12:00:00 NR 19.1367 130.949 main 904 904 __________P___ -1 19.1367 130.949 4 5 100
1936267N16130 1936 52 WP MM NOT_NAMED 1936-09-25 15:00:00 NR 19.1176 131.195 main 929 929 __________P___ -1 19.1176 131.195 4 4 90
1936267N16130 1936 52 WP MM NOT_NAMED 1936-09-25 18:00:00 NR 19.1398 131.418 main 946 946 __________P___ -1 19.1398 131.418 4 4 78
1936267N16130 1936 52 WP MM NOT_NAMED 1936-09-25 21:00:00 NR 19.2000 131.600 main 969 969 __________O___ -1 19.2000 131.600 4 3 62
1936267N16130 1936 52 WP MM NOT_NAMED 1936-09-26 00:00:00 NR 19.2970 131.726 main 984 984 __________P___ -1 19.2970 131.726 4 3 41
1936267N16130 1936 52 WP MM NOT_NAMED 1936-09-26 03:00:00 NR 19.4273 131.810 main 1000 1000 __________P___ -1 19.4273 131.810 4 3 26
1936267N16130 1936 52 WP MM NOT_NAMED 1936-09-26 06:00:00 NR 19.5690 131.864 main 1018 1018 __________P___ -1 19.5690 131.864 4 3 17
1936267N16130 1936 52 WP MM NOT_NAMED 1936-09-26 09:00:00 NR 19.7000 131.900 main 1019 1019 __________O___ -1 19.7000 131.900 4 2 24
1936267N16130 1936 52 WP MM NOT_NAMED 1936-09-26 12:00:00 NR 19.7569 131.952 main 1031 1031 __________P___ -1 19.7569 131.952 4 1 37
1936267N16130 1936 52 WP MM NOT_NAMED 1936-09-26 15:00:00 NR 19.8050 131.987 main 1031 1031 __________P___ -1 19.8050 131.987 4 1 25
1936267N16130 1936 52 WP MM NOT_NAMED 1936-09-26 18:00:00 NR 19.8756 132.005 main 1032 1032 __________P___ -1 19.8756 132.005 4 2 0
1936267N16130 1936 52 WP MM NOT_NAMED 1936-09-26 21:00:00 NR 20.0000 132.000 main 1034 1034 __________O___ -1 20.0000 132.000 4 3 0
1936267N16130 1936 52 WP MM NOT_NAMED 1936-09-27 00:00:00 NR 20.2214 132.008 main 1037 1037 __________P___ -1 20.2214 132.008 4 5 359
1936267N16130 1936 52 WP MM NOT_NAMED 1936-09-27 03:00:00 NR 20.4972 131.989 main 1043 1038 __________P___ -1 20.4972 131.989 4 6 353
1936267N16130 1936 52 WP MM NOT_NAMED 1936-09-27 06:00:00 NR 20.7994 131.926 main 1040 1035 __________P___ -1 20.7994 131.926 4 6 344
1936267N16130 1936 52 WP MM NOT_NAMED 1936-09-27 09:00:00 NR 21.1000 131.800 main 1038 1025 __________O___ -1 21.1000 131.800 4 6 330
1936267N16130 1936 52 WP MM NOT_NAMED 1936-09-27 12:00:00 NR 21.3371 131.590 main 1025 1005 __________P___ -1 21.3371 131.590 4 7 316
1936267N16130 1936 52 WP MM NOT_NAMED 1936-09-27 15:00:00 NR 21.5703 131.317 main 1005 977 __________P___ -1 21.5703 131.317 4 7 312
1936267N16130 1936 52 WP MM NOT_NAMED 1936-09-27 18:00:00 NR 21.8183 131.011 main 977 937 __________P___ -1 21.8183 131.011 4 8 313
1936267N16130 1936 52 WP MM NOT_NAMED 1936-09-27 21:00:00 NR 22.1000 130.700 main 937 897 __________O___ -1 22.1000 130.700 4 9 320
1936267N16130 1936 52 WP MM NOT_NAMED 1936-09-28 00:00:00 NR 22.4675 130.413 main 894 855 __________P___ -1 22.4675 130.413 4 9 325
1936267N16130 1936 52 WP MM NOT_NAMED 1936-09-28 03:00:00 NR 22.8650 130.128 main 853 825 __________P___ -1 22.8650 130.128 4 9 327
1936267N16130 1936 52 WP MM NOT_NAMED 1936-09-28 06:00:00 NR 23.2550 129.854 main 823 785 __________P___ -1 23.2550 129.854 4 9 327
1936267N16130 1936 52 WP MM NOT_NAMED 1936-09-28 09:00:00 NR 23.6000 129.600 main 785 758 __________O___ -1 23.6000 129.600 4 8 324
1936267N16130 1936 52 WP MM NOT_NAMED 1936-09-28 12:00:00 NR 23.8746 129.354 main 758 724 __________P___ -1 23.8746 129.354 4 7 319
1936267N16130 1936 52 WP MM NOT_NAMED 1936-09-28 15:00:00 NR 24.0974 129.132 main 724 711 __________P___ -1 24.0974 129.132 4 5 317
1936267N16130 1936 52 WP MM NOT_NAMED 1936-09-28 18:00:00 NR 24.2715 128.944 main 701 689 __________P___ -1 24.2715 128.944 4 4 315
1936267N16130 1936 52 WP MM NOT_NAMED 1936-09-28 21:00:00 NR 24.4000 128.800 main 689 678 __________O___ -1 24.4000 128.800 4 3 316
1936267N16130 1936 52 WP MM NOT_NAMED 1936-09-29 00:00:00 NR 24.4970 128.706 main 678 677 __________P___ -1 24.4970 128.706 4 2 319
1936267N16130 1936 52 WP MM NOT_NAMED 1936-09-29 03:00:00 NR 24.5523 128.655 main 677 667 __________P___ -1 24.5523 128.655 4 1 319
1936267N16130 1936 52 WP MM NOT_NAMED 1936-09-29 06:00:00 NR 24.5814 128.625 main 667 667 __________P___ -1 24.5814 128.625 4 1 314
1936267N16130 1936 52 WP MM NOT_NAMED 1936-09-29 09:00:00 NR 24.6000 128.600 main 667 667 __________O___ -1 24.6000 128.600 4 1 313
1936267N16130 1936 52 WP MM NOT_NAMED 1936-09-29 12:00:00 NR 24.6281 128.566 main 667 657 __________P___ -1 24.6281 128.566 4 1 304
1936267N16130 1936 52 WP MM NOT_NAMED 1936-09-29 15:00:00 NR 24.6499 128.530 main 657 656 __________P___ -1 24.6499 128.530 4 1 300
1936267N16130 1936 52 WP MM NOT_NAMED 1936-09-29 18:00:00 NR 24.6718 128.479 main 656 646 __________P___ -1 24.6718 128.479 4 1 292
1936267N16130 1936 52 WP MM NOT_NAMED 1936-09-29 21:00:00 NR 24.7000 128.400 main 646 636 __________O___ -1 24.7000 128.400 4 2 293
1936267N16130 1936 52 WP MM NOT_NAMED 1936-09-30 00:00:00 NR 24.7428 128.287 main 636 625 __________P___ -1 24.7428 128.287 4 2 292
1936267N16130 1936 52 WP MM NOT_NAMED 1936-09-30 03:00:00 NR 24.7925 128.145 main 615 605 __________P___ -1 24.7925 128.145 4 3 290
1936267N16130 1936 52 WP MM NOT_NAMED 1936-09-30 06:00:00 NR 24.8459 127.981 main 605 584 __________P___ -1 24.8459 127.981 4 3 289
1936267N16130 1936 52 WP MM NOT_NAMED 1936-09-30 09:00:00 NR 24.9000 127.800 main 584 564 __________O___ -1 24.9000 127.800 4 4 283
1936267N16130 1936 52 WP MM NOT_NAMED 1936-09-30 12:00:00 NR 24.9300 127.566 main 564 533 __________P___ -1 24.9300 127.566 4 4 278
1936267N16130 1936 52 WP MM NOT_NAMED 1936-09-30 15:00:00 NR 24.9628 127.325 main 533 513 __________P___ -1 24.9628 127.325 4 4 282
1936267N16130 1936 52 WP MM NOT_NAMED 1936-09-30 18:00:00 NR 25.0143 127.122 main 513 503 __________P___ -1 25.0143 127.122 4 3 295
1936267N16130 1936 52 WP MM NOT_NAMED 1936-09-30 21:00:00 NR 25.1000 127.000 main 503 503 __________O___ -1 25.1000 127.000 4 2 324
1936267N16130 1936 52 WP MM NOT_NAMED 1936-10-01 00:00:00 NR 25.2141 126.966 main 503 503 __________P___ -1 25.2141 126.966 4 3 0
1936267N16130 1936 52 WP MM NOT_NAMED 1936-10-01 03:00:00 NR 25.3667 127.021 main 504 504 __________P___ -1 25.3667 127.021 4 4 28
1936267N16130 1936 52 WP MM NOT_NAMED 1936-10-01 06:00:00 NR 25.5609 127.166 main 526 526 __________P___ -1 25.5609 127.166 4 6 38
1936267N16130 1936 52 WP MM NOT_NAMED 1936-10-01 09:00:00 NR 25.8000 127.400 main 549 549 __________O___ -1 25.8000 127.400 4 7 43
1936267N16130 1936 52 WP MM NOT_NAMED 1936-10-01 12:00:00 NR 26.0864 127.713 main 584 572 __________P___ -1 26.0864 127.713 4 9 46
1936267N16130 1936 52 WP MM NOT_NAMED 1936-10-01 15:00:00 NR 26.4132 128.109 main 572 525 __________P___ -1 26.4132 128.109 4 10 48
1936267N16130 1936 52 WP MM NOT_NAMED 1936-10-01 18:00:00 NR 26.7583 128.551 main 511 465 __________P___ -1 26.7583 128.551 4 11 49
1936267N16130 1936 52 WP MM NOT_NAMED 1936-10-01 21:00:00 NR 27.1000 129.000 main 465 434 __________O___ -1 27.1000 129.000 4 9 50
1936267N16130 1936 52 WP MM NOT_NAMED 1936-10-02 00:00:00 NR 27.3103 129.295 main 434 404 __________P___ -1 27.3103 129.295 4 7 51
1936267N16130 1936 52 WP MM NOT_NAMED 1936-10-02 03:00:00 NR 27.5292 129.604 main 404 363 __________P___ -1 27.5292 129.604 4 8 51
1936267N16130 1936 52 WP MM NOT_NAMED 1936-10-02 06:00:00 NR 27.8337 130.011 main 363 301 __________P___ -1 27.8337 130.011 4 12 49
1936267N16130 1936 52 WP MM NOT_NAMED 1936-10-02 09:00:00 NR 28.3000 130.600 main 301 241 __________O___ -1 28.3000 130.600 4 17 47
1936267N16130 1936 52 WP MM NOT_NAMED 1936-10-02 12:00:00 NR 28.9777 131.388 main 233 198 __________P___ -1 28.9777 131.388 4 22 46
1936267N16130 1936 52 WP MM NOT_NAMED 1936-10-02 15:00:00 NR 29.8181 132.386 main 202 189 __________P___ -1 29.8181 132.386 4 26 47
1936267N16130 1936 52 WP MM NOT_NAMED 1936-10-02 18:00:00 NR 30.7743 133.591 main 219 176 __________P___ -1 30.7743 133.591 4 30 49
1936267N16130 1936 52 WP MM NOT_NAMED 1936-10-02 21:00:00 NR 31.8000 135.000 main 173 119 __________O___ -1 31.8000 135.000 4 32 56
1936267N16130 1936 52 WP MM NOT_NAMED 1936-10-03 00:00:00 NR 32.5485 136.707 main 130 128 __________P___ -1 32.5485 136.707 4 34 62
1936267N16130 1936 52 WP MM NOT_NAMED 1936-10-03 03:00:00 NR 33.3778 138.591 main 135 72 __________P___ -1 33.3778 138.591 4 37 59
1936267N16130 1936 52 WP MM NOT_NAMED 1936-10-03 06:00:00 NR 34.4650 140.502 main 70 66 __________P___ -1 34.4650 140.502 4 40 49
1936267N16130 1936 52 WP MM NOT_NAMED 1936-10-03 09:00:00 NR 36.0000 142.300 main 130 130 __________O___ -1 36.0000 142.300 4 50 34
1936267N16130 1936 52 WP MM NOT_NAMED 1936-10-03 12:00:00 NR 38.5837 143.980 main 191 176 __________P___ -1 38.5837 143.980 4 62 25
1936267N16130 1936 52 WP MM NOT_NAMED 1936-10-03 15:00:00 NR 41.5798 145.596 main 158 22 __________P___ -1 41.5798 145.596 4 63 21
1936267N16130 1936 52 WP MM NOT_NAMED 1936-10-03 18:00:00 NR 44.4851 147.080 main 7 0 __________P___ -1 44.4851 147.080 4 56 20
1936267N16130 1936 52 WP MM NOT_NAMED 1936-10-03 21:00:00 NR 46.8000 148.300 main 149 149 __________O___ -1 46.8000 148.300 4 37 21
1936267N16130 1936 52 WP MM NOT_NAMED 1936-10-04 00:00:00 NR 47.9019 149.004 main 219 219 __________P___ -1 47.9019 149.004 4 17 23
1936267N16130 1936 52 WP MM NOT_NAMED 1936-10-04 03:00:00 NR 48.3997 149.326 main 264 262 __________P___ -1 48.3997 149.326 4 7 26
1936267N16130 1936 52 WP MM NOT_NAMED 1936-10-04 06:00:00 NR 48.5492 149.480 main 271 271 __________P___ -1 48.5492 149.480 4 3 51
1936267N16130 1936 52 WP MM NOT_NAMED 1936-10-04 09:00:00 NR 48.6000 149.700 main 280 279 __________O___ -1 48.6000 149.700 4 7 53
1936267N16130 1936 52 WP MM NOT_NAMED 1936-10-04 12:00:00 NR 48.9752 150.327 main 322 313 __________P___ -1 48.9752 150.327 4 11 52
1936267N16130 1936 52 WP MM NOT_NAMED 1936-10-04 15:00:00 NR 49.2939 151.067 main 306 251 __________P___ -1 49.2939 151.067 4 12 61
1936267N16130 1936 52 WP MM NOT_NAMED 1936-10-04 18:00:00 NR 49.5404 151.873 main 244 183 __________P___ -1 49.5404 151.873 4 11 69
1936267N16130 1936 52 WP MM NOT_NAMED 1936-10-04 21:00:00 NR 49.7000 152.700 main 183 125 __________O___ -1 49.7000 152.700 4 11 78
1936267N16130 1936 52 WP MM NOT_NAMED 1936-10-05 00:00:00 NR 49.7654 153.506 main 125 78 __________P___ -1 49.7654 153.506 4 10 87
1936267N16130 1936 52 WP MM NOT_NAMED 1936-10-05 03:00:00 NR 49.7545 154.288 main 72 43 __________P___ -1 49.7545 154.288 4 10 94
1936267N16130 1936 52 WP MM NOT_NAMED 1936-10-05 06:00:00 NR 49.6915 155.050 main 43 33 __________P___ -1 49.6915 155.050 4 10 99
1936267N16130 1936 52 WP MM NOT_NAMED 1936-10-05 09:00:00 NR 49.6000 155.800 main 52 __________O___ -1 49.6000 155.800 4 10 101

Digital Typhoon Data and Search

About IBTrACS Database

This database is a web-friendly format of International Best Track Archive for Climate Stewardship (IBTrACS), a global best track data archive curated by NOAA dating back to 1842.

Updated: 2021-12-01